Time;durP1;ratioP1;P1;durP2;ratioP2;P2;SDS_P1;SDS_P2;PMS_P1;PMS_P2;Temp;Humidity;BMP_temperature;BMP_pressure;BME280_temperature;BME280_humidity;BME280_pressure;Samples;Min_cycle;Max_cycle;Signal;HPM_P1;HPM_P2
2022/03/15 00:01:49;;;;;;;;;;;;;;;27.35;56.29;98763.47;626856;226;67244;-67
2022/03/15 00:04:17;;;;;;;;;;;;;;;27.35;56.59;98763.47;626841;226;67011;-67
2022/03/15 00:06:45;;;;;;;;;;;;;;;27.35;56.65;98766.16;626939;226;65524;-67
2022/03/15 00:09:13;;;;;;;;;;;;;;;27.34;56.55;98765.36;626867;226;65876;-67
2022/03/15 00:11:40;;;;;;;;;;;;;;;27.32;56.70;98761.31;626850;226;66962;-67
2022/03/15 00:14:14;;;;;;;;;;;;;;;27.31;57.80;98770.47;626865;226;65266;-67
2022/03/15 00:16:41;;;;;;;;;;;;;;;27.30;56.57;98775.06;626919;225;47076;-67
2022/03/15 00:19:09;;;;;;;;;;;;;;;27.30;57.02;98779.66;626900;226;66981;-67
2022/03/15 00:21:38;;;;;;;;;;;;;;;27.28;57.95;98771.81;626879;226;65083;-65
2022/03/15 00:24:06;;;;;;;;;;;;;;;27.26;56.78;98773.20;626915;226;67229;-65
2022/03/15 00:26:35;;;;;;;;;;;;;;;27.26;57.12;98770.50;626902;226;66431;-65
2022/03/15 00:29:04;;;;;;;;;;;;;;;27.24;57.13;98770.75;626868;225;44501;-65
2022/03/15 00:31:31;;;;;;;;;;;;;;;27.23;56.81;98769.14;626880;226;66830;-65
2022/03/15 00:33:59;;;;;;;;;;;;;;;27.22;58.32;98759.41;626906;226;64499;-65
2022/03/15 00:36:27;;;;;;;;;;;;;;;27.21;56.89;98758.61;626900;226;63062;-65
2022/03/15 00:38:56;;;;;;;;;;;;;;;27.21;57.45;98758.61;626824;226;64180;-65
2022/03/15 00:41:25;;;;;;;;;;;;;;;27.20;57.32;98746.20;626873;225;46683;-65
2022/03/15 00:43:53;;;;;;;;;;;;;;;27.18;57.89;98758.34;626900;226;63085;-65
2022/03/15 00:46:22;;;;;;;;;;;;;;;27.15;56.84;98756.96;626959;225;44567;-65
2022/03/15 00:48:49;;;;;;;;;;;;;;;27.15;58.14;98756.16;626882;226;66887;-65
2022/03/15 00:51:17;;;;;;;;;;;;;;;27.15;57.37;98756.96;626871;226;62916;-65
2022/03/15 00:53:44;;;;;;;;;;;;;;;27.13;56.83;98748.31;626888;226;64287;-65
2022/03/15 00:56:13;;;;;;;;;;;;;;;27.12;57.87;98752.11;626871;226;66959;-68
2022/03/15 00:58:42;;;;;;;;;;;;;;;27.11;57.89;98750.47;626933;226;64091;-67
2022/03/15 01:01:10;;;;;;;;;;;;;;;27.11;57.50;98741.56;626885;226;67436;-67
2022/03/15 01:03:38;;;;;;;;;;;;;;;27.09;57.79;98743.72;626891;226;64475;-67
2022/03/15 01:06:05;;;;;;;;;;;;;;;27.06;57.84;98742.37;626891;226;63072;-67
2022/03/15 01:08:33;;;;;;;;;;;;;;;27.06;57.51;98747.77;626866;226;67210;-67
2022/03/15 01:11:00;;;;;;;;;;;;;;;27.06;58.29;98736.97;626932;226;67033;-67
2022/03/15 01:13:29;;;;;;;;;;;;;;;27.05;57.96;98743.45;626892;226;65742;-67
2022/03/15 01:15:57;;;;;;;;;;;;;;;27.04;58.16;98730.22;626905;226;67200;-67
2022/03/15 01:18:24;;;;;;;;;;;;;;;27.01;58.27;98729.70;626906;226;66914;-67
2022/03/15 01:20:52;;;;;;;;;;;;;;;27.02;58.05;98727.81;626894;226;64006;-67
2022/03/15 01:23:19;;;;;;;;;;;;;;;26.99;57.40;98728.35;626870;226;64846;-67
2022/03/15 01:25:47;;;;;;;;;;;;;;;27.01;58.64;98726.20;626940;226;64836;-67
2022/03/15 01:28:15;;;;;;;;;;;;;;;27.00;57.49;98713.77;626917;226;63136;-67
2022/03/15 01:30:43;;;;;;;;;;;;;;;26.98;58.26;98714.05;626883;226;67008;-67
2022/03/15 01:33:11;;;;;;;;;;;;;;;26.97;58.27;98712.42;626891;226;64512;-67
2022/03/15 01:35:41;;;;;;;;;;;;;;;26.97;57.06;98703.52;626874;226;62694;-67
2022/03/15 01:38:09;;;;;;;;;;;;;;;26.95;58.79;98713.77;626913;226;67219;-67
2022/03/15 01:40:37;;;;;;;;;;;;;;;26.93;55.57;98715.94;626894;226;64705;-67
2022/03/15 01:43:04;;;;;;;;;;;;;;;26.96;57.40;98716.20;626884;226;63795;-67
2022/03/15 01:45:34;;;;;;;;;;;;;;;26.96;57.70;98715.41;626876;226;67310;-67
2022/03/15 01:48:03;;;;;;;;;;;;;;;26.92;58.11;98715.11;626866;225;45988;-67
2022/03/15 01:50:32;;;;;;;;;;;;;;;26.92;58.26;98708.91;626854;226;62897;-65
2022/03/15 01:53:00;;;;;;;;;;;;;;;26.90;58.92;98713.76;626836;226;67217;-65
2022/03/15 01:55:28;;;;;;;;;;;;;;;26.89;58.61;98704.86;626875;226;66871;-65
2022/03/15 01:57:56;;;;;;;;;;;;;;;26.88;58.88;98713.23;626894;226;63151;-65
2022/03/15 02:00:25;;;;;;;;;;;;;;;26.85;58.65;98719.17;626926;226;67017;-65
2022/03/15 02:02:53;;;;;;;;;;;;;;;26.86;57.54;98723.48;626879;226;67587;-66
2022/03/15 02:05:20;;;;;;;;;;;;;;;26.85;57.21;98730.77;626910;226;65289;-65
2022/03/15 02:07:50;;;;;;;;;;;;;;;26.84;59.29;98723.73;626832;225;50510;-65
2022/03/15 02:10:19;;;;;;;;;;;;;;;26.81;59.55;98720.77;626847;225;44367;-65
2022/03/15 02:12:46;;;;;;;;;;;;;;;26.79;59.34;98731.81;626863;226;63110;-65
2022/03/15 02:15:14;;;;;;;;;;;;;;;26.81;58.87;98740.46;626890;226;65176;-65
2022/03/15 02:17:41;;;;;;;;;;;;;;;26.76;58.37;98741.28;626898;226;65842;-65
2022/03/15 02:20:10;;;;;;;;;;;;;;;26.77;58.10;98737.50;626903;226;65241;-65
2022/03/15 02:22:37;;;;;;;;;;;;;;;26.78;59.03;98743.70;626852;226;67237;-65
2022/03/15 02:25:05;;;;;;;;;;;;;;;26.76;59.48;98754.77;626916;226;66968;-65
2022/03/15 02:27:32;;;;;;;;;;;;;;;26.73;58.95;98752.58;626913;226;63021;-65
2022/03/15 02:30:00;;;;;;;;;;;;;;;26.74;58.17;98759.61;626661;226;66818;-65
2022/03/15 02:32:28;;;;;;;;;;;;;;;26.74;58.45;98756.11;626903;226;64649;-65
2022/03/15 02:34:55;;;;;;;;;;;;;;;26.73;59.90;98747.19;626865;226;63249;-65
2022/03/15 02:37:24;;;;;;;;;;;;;;;26.71;60.38;98752.06;626884;226;64968;-65
2022/03/15 02:39:52;;;;;;;;;;;;;;;26.68;59.98;98741.80;626893;226;66897;-65
2022/03/15 02:42:20;;;;;;;;;;;;;;;26.69;58.28;98742.61;626854;226;65293;-65
2022/03/15 02:44:47;;;;;;;;;;;;;;;26.67;58.75;98748.26;626884;226;67129;-65
2022/03/15 02:47:15;;;;;;;;;;;;;;;26.66;60.18;98748.55;626910;226;65099;-65
2022/03/15 02:49:42;;;;;;;;;;;;;;;26.65;60.17;98742.31;626867;226;63167;-65
2022/03/15 02:52:10;;;;;;;;;;;;;;;26.65;59.22;98736.11;626930;226;67240;-65
2022/03/15 02:54:41;;;;;;;;;;;;;;;26.65;60.22;98736.11;626966;226;65652;-65
2022/03/15 02:57:10;;;;;;;;;;;;;;;26.59;59.29;98729.09;626858;226;65292;-65
2022/03/15 02:59:43;;;;;;;;;;;;;;;26.59;59.54;98721.81;626898;226;64800;-67
2022/03/15 03:02:08;;;;;;;;;;;;;;;26.58;60.44;98717.51;626671;225;65234;-67
2022/03/15 03:04:35;;;;;;;;;;;;;;;26.59;56.37;98721.02;626867;226;63126;-67
2022/03/15 03:07:03;;;;;;;;;;;;;;;26.59;59.29;98715.62;626944;226;64870;-67
2022/03/15 03:09:31;;;;;;;;;;;;;;;26.56;60.55;98712.37;626865;226;67228;-67
2022/03/15 03:11:58;;;;;;;;;;;;;;;26.57;60.28;98707.78;626868;226;65261;-67
2022/03/15 03:14:26;;;;;;;;;;;;;;;26.54;60.10;98695.64;626874;226;67296;-67
2022/03/15 03:16:54;;;;;;;;;;;;;;;26.54;60.49;98692.95;626901;226;65059;-67
2022/03/15 03:19:23;;;;;;;;;;;;;;;26.50;59.45;98694.54;626926;226;63161;-67
2022/03/15 03:21:50;;;;;;;;;;;;;;;26.51;59.72;98700.77;626841;226;66872;-67
2022/03/15 03:24:24;;;;;;;;;;;;;;;26.51;60.41;98700.77;626902;226;66910;-65
2022/03/15 03:26:47;;;;;;;;;;;;;;;26.48;60.54;98699.38;626557;225;65077;-65
2022/03/15 03:29:15;;;;;;;;;;;;;;;26.47;60.05;98696.97;626882;226;67076;-65
2022/03/15 03:31:44;;;;;;;;;;;;;;;26.46;59.37;98698.83;626930;226;66887;-65
2022/03/15 03:34:12;;;;;;;;;;;;;;;26.45;60.71;98694.52;626836;226;65197;-65
2022/03/15 03:36:40;;;;;;;;;;;;;;;26.44;60.13;98692.11;626881;226;65145;-65
2022/03/15 03:39:08;;;;;;;;;;;;;;;26.43;60.23;98688.58;626077;226;67172;-65
2022/03/15 03:41:37;;;;;;;;;;;;;;;26.43;60.59;98685.08;624491;227;65309;-65
2022/03/15 03:44:06;;;;;;;;;;;;;;;26.41;57.48;98682.67;624646;227;67214;-65
2022/03/15 03:46:36;;;;;;;;;;;;;;;26.42;59.95;98684.28;624626;227;64963;-65
2022/03/15 03:49:03;;;;;;;;;;;;;;;26.38;61.17;98685.88;624585;227;64049;-67
2022/03/15 03:51:31;;;;;;;;;;;;;;;26.39;59.89;98687.51;624581;227;67192;-67
2022/03/15 03:53:58;;;;;;;;;;;;;;;26.39;59.96;98687.51;624573;227;67025;-67
2022/03/15 03:56:26;;;;;;;;;;;;;;;26.35;60.51;98684.55;624622;227;65393;-67
2022/03/15 03:58:53;;;;;;;;;;;;;;;26.34;59.99;98679.41;624633;227;67156;-67
2022/03/15 04:01:21;;;;;;;;;;;;;;;26.34;60.34;98676.71;624562;225;64841;-67
2022/03/15 04:03:49;;;;;;;;;;;;;;;26.34;60.06;98687.49;624624;227;63133;-67
2022/03/15 04:06:16;;;;;;;;;;;;;;;26.33;60.77;98689.38;624609;227;67003;-67
2022/03/15 04:08:44;;;;;;;;;;;;;;;26.32;59.81;98695.83;624592;227;66737;-65
2022/03/15 04:11:13;;;;;;;;;;;;;;;26.31;60.47;98696.11;624656;225;42712;-65
2022/03/15 04:13:44;;;;;;;;;;;;;;;26.28;60.71;98692.06;624548;227;67148;-65
2022/03/15 04:16:12;;;;;;;;;;;;;;;26.26;60.83;98685.31;624510;227;67375;-65
2022/03/15 04:18:41;;;;;;;;;;;;;;;26.26;59.97;98683.42;624611;225;44523;-65
2022/03/15 04:21:08;;;;;;;;;;;;;;;26.26;60.75;98678.03;624591;227;67171;-65
2022/03/15 04:23:36;;;;;;;;;;;;;;;26.24;60.19;98661.31;624607;227;67001;-65
2022/03/15 04:26:03;;;;;;;;;;;;;;;26.23;60.32;98665.09;624613;225;65171;-67
2022/03/15 04:28:31;;;;;;;;;;;;;;;26.20;60.70;98662.94;624165;227;65103;-67
2022/03/15 04:30:58;;;;;;;;;;;;;;;26.20;60.58;98671.02;624626;224;65414;-67
2022/03/15 04:33:26;;;;;;;;;;;;;;;26.18;59.67;98666.97;624694;227;65176;-67
2022/03/15 04:35:55;;;;;;;;;;;;;;;26.17;60.97;98663.47;624589;227;46505;-68
2022/03/15 04:38:23;;;;;;;;;;;;;;;26.15;60.67;98668.30;624679;226;66760;-67
2022/03/15 04:40:52;;;;;;;;;;;;;;;26.15;58.64;98662.91;626901;225;43962;-67
2022/03/15 04:43:19;;;;;;;;;;;;;;;26.15;60.88;98678.28;626874;226;67181;-68
2022/03/15 04:45:47;;;;;;;;;;;;;;;26.16;60.94;98675.30;626933;226;66820;-68
2022/03/15 04:48:15;;;;;;;;;;;;;;;26.13;60.40;98671.25;622855;226;65275;-68
2022/03/15 04:50:43;;;;;;;;;;;;;;;26.12;59.23;98676.92;626948;226;64689;-68
2022/03/15 04:53:12;;;;;;;;;;;;;;;26.10;60.79;98679.87;626929;226;66895;-68
2022/03/15 04:55:42;;;;;;;;;;;;;;;26.12;60.12;98695.78;626898;226;51265;-67
2022/03/15 04:58:10;;;;;;;;;;;;;;;26.12;60.39;98690.39;626870;226;67154;-67
2022/03/15 05:00:37;;;;;;;;;;;;;;;26.09;59.51;98690.92;626883;226;66898;-68
2022/03/15 05:03:06;;;;;;;;;;;;;;;26.09;59.68;98702.50;626897;226;65940;-67
2022/03/15 05:05:34;;;;;;;;;;;;;;;26.04;60.50;98710.56;626925;226;67210;-68
2022/03/15 05:08:01;;;;;;;;;;;;;;;26.04;60.10;98709.76;626850;226;64600;-67
2022/03/15 05:13:14;;;;;;;;;;;;;;;26.04;60.37;98720.53;626912;226;67160;-66
2022/03/15 05:15:42;;;;;;;;;;;;;;;26.02;60.01;98728.06;626895;226;64924;-66
2022/03/15 05:18:10;;;;;;;;;;;;;;;26.01;60.77;98715.67;626845;226;66030;-67
2022/03/15 05:20:38;;;;;;;;;;;;;;;26.01;60.93;98712.98;626920;226;67325;-68
2022/03/15 05:23:06;;;;;;;;;;;;;;;26.01;60.48;98715.67;626905;226;67951;-68
2022/03/15 05:25:33;;;;;;;;;;;;;;;26.01;57.98;98718.38;626910;226;65093;-68
2022/03/15 05:28:01;;;;;;;;;;;;;;;25.98;61.65;98719.70;626875;226;67197;-68
2022/03/15 05:30:28;;;;;;;;;;;;;;;25.96;61.46;98712.95;626872;226;67309;-65
2022/03/15 05:32:57;;;;;;;;;;;;;;;25.98;61.02;98710.82;626832;226;65579;-65
2022/03/15 05:35:25;;;;;;;;;;;;;;;25.96;61.67;98719.15;626842;226;67229;-65
2022/03/15 05:37:52;;;;;;;;;;;;;;;25.97;60.96;98717.27;626885;226;64723;-65
2022/03/15 05:40:20;;;;;;;;;;;;;;;25.97;61.09;98714.56;626817;226;64150;-66
2022/03/15 05:42:47;;;;;;;;;;;;;;;25.96;61.46;98707.57;626899;226;64564;-64
2022/03/15 05:45:15;;;;;;;;;;;;;;;25.96;61.70;98710.27;626939;226;67065;-64
2022/03/15 05:47:42;;;;;;;;;;;;;;;25.97;60.57;98709.18;626883;226;65653;-66
2022/03/15 05:50:10;;;;;;;;;;;;;;;25.95;60.47;98701.38;626766;226;66829;-66
2022/03/15 05:52:38;;;;;;;;;;;;;;;25.97;61.13;98706.48;626877;226;66954;-66
2022/03/15 05:55:05;;;;;;;;;;;;;;;25.98;61.08;98718.91;626756;226;66137;-66
2022/03/15 05:57:33;;;;;;;;;;;;;;;25.98;61.63;98711.63;626869;226;67362;-63
2022/03/15 06:00:01;;;;;;;;;;;;;;;25.99;61.16;98712.42;626849;226;67018;-63
2022/03/15 06:02:28;;;;;;;;;;;;;;;25.99;62.02;98698.95;626847;226;65130;-64
2022/03/15 06:04:57;;;;;;;;;;;;;;;26.00;61.37;98692.48;626774;226;67270;-66
2022/03/15 06:07:25;;;;;;;;;;;;;;;26.01;61.31;98694.12;626761;226;67116;-66
2022/03/15 06:09:53;;;;;;;;;;;;;;;26.03;62.40;98702.77;626862;226;65383;-64
2022/03/15 06:12:21;;;;;;;;;;;;;;;26.02;60.96;98707.31;626976;226;67159;-64
2022/03/15 06:14:48;;;;;;;;;;;;;;;26.02;59.97;98706.52;626652;226;65863;-64
2022/03/15 06:17:15;;;;;;;;;;;;;;;26.03;61.74;98692.80;626788;226;65052;-64
2022/03/15 06:19:43;;;;;;;;;;;;;;;26.05;59.41;98703.29;626833;226;66852;-66
2022/03/15 06:22:10;;;;;;;;;;;;;;;26.05;60.14;98709.48;626251;226;66815;-66
2022/03/15 06:24:38;;;;;;;;;;;;;;;26.06;60.70;98713.81;626541;226;65464;-66
2022/03/15 06:27:07;;;;;;;;;;;;;;;26.08;60.89;98733.23;626871;225;44466;-66
2022/03/15 06:29:35;;;;;;;;;;;;;;;26.08;60.33;98733.23;626791;226;64817;-66
2022/03/15 06:32:02;;;;;;;;;;;;;;;26.09;59.61;98734.84;626780;226;65256;-66
2022/03/15 06:34:30;;;;;;;;;;;;;;;26.11;60.27;98729.20;626856;226;67241;-66
2022/03/15 06:36:58;;;;;;;;;;;;;;;26.11;60.14;98719.23;626821;226;66793;-66
2022/03/15 06:39:25;;;;;;;;;;;;;;;26.13;59.62;98719.75;626741;226;63187;-66
2022/03/15 06:41:54;;;;;;;;;;;;;;;26.12;59.28;98715.45;626720;226;65068;-64
2022/03/15 06:44:23;;;;;;;;;;;;;;;26.16;60.73;98723.00;626690;226;67218;-63
2022/03/15 06:46:50;;;;;;;;;;;;;;;26.16;59.33;98731.89;626780;226;63304;-64
2022/03/15 06:49:18;;;;;;;;;;;;;;;26.18;59.65;98720.86;626862;226;64883;-61
2022/03/15 06:51:46;;;;;;;;;;;;;;;26.19;58.74;98728.70;626867;226;67393;-63
2022/03/15 06:54:13;;;;;;;;;;;;;;;26.20;58.85;98730.30;626874;226;65147;-65
2022/03/15 06:56:40;;;;;;;;;;;;;;;26.17;57.59;98725.45;626860;226;67026;-68
2022/03/15 06:59:08;;;;;;;;;;;;;;;26.16;58.88;98725.70;626809;226;67114;-64
2022/03/15 07:01:35;;;;;;;;;;;;;;;26.17;59.09;98735.42;626776;226;65121;-67
2022/03/15 07:04:04;;;;;;;;;;;;;;;26.18;57.56;98742.42;626745;226;67031;-68
2022/03/15 07:06:32;;;;;;;;;;;;;;;26.17;57.28;98730.83;626443;226;66843;-67
2022/03/15 07:08:59;;;;;;;;;;;;;;;26.20;55.32;98732.20;626798;226;65361;-66
2022/03/15 07:11:27;;;;;;;;;;;;;;;26.20;55.67;98722.22;626805;226;67434;-69
2022/03/15 07:13:54;;;;;;;;;;;;;;;26.22;54.52;98733.55;624686;226;66917;-74
2022/03/15 07:16:23;;;;;;;;;;;;;;;26.26;55.81;98739.22;619681;228;42469;-69
2022/03/15 07:18:52;;;;;;;;;;;;;;;26.27;54.49;98730.88;619467;229;67169;-70
2022/03/15 07:21:20;;;;;;;;;;;;;;;26.31;53.63;98718.48;619281;229;67032;-72
2022/03/15 07:23:47;;;;;;;;;;;;;;;26.33;54.47;98719.03;619561;229;65358;-70
2022/03/15 07:26:15;;;;;;;;;;;;;;;26.38;54.54;98720.11;619640;229;64831;-71
2022/03/15 07:28:42;;;;;;;;;;;;;;;26.41;55.27;98723.10;619644;229;64767;-72
2022/03/15 07:31:10;;;;;;;;;;;;;;;26.44;54.21;98725.27;619652;229;63068;-71
2022/03/15 07:33:37;;;;;;;;;;;;;;;26.47;53.94;98723.92;619532;229;64777;-73
2022/03/15 07:36:05;;;;;;;;;;;;;;;26.49;55.76;98716.36;619579;229;64812;-72
2022/03/15 07:38:33;;;;;;;;;;;;;;;26.49;54.90;98716.36;619181;227;63152;-70
2022/03/15 07:41:01;;;;;;;;;;;;;;;26.51;54.80;98725.03;614694;231;65036;-70
2022/03/15 07:43:29;;;;;;;;;;;;;;;26.54;54.81;98728.00;614678;231;66747;-71
2022/03/15 07:45:57;;;;;;;;;;;;;;;26.55;55.45;98723.44;614718;231;62981;-72
2022/03/15 07:48:24;;;;;;;;;;;;;;;26.56;54.04;98722.34;614573;228;64836;-73
2022/03/15 07:50:52;;;;;;;;;;;;;;;26.59;54.47;98726.41;614721;231;66956;-69
2022/03/15 07:53:21;;;;;;;;;;;;;;;26.61;54.87;98722.37;614645;231;65677;-70
2022/03/15 07:55:48;;;;;;;;;;;;;;;26.63;54.71;98724.78;614619;231;67058;-74
2022/03/15 07:58:16;;;;;;;;;;;;;;;26.63;54.40;98722.08;614662;231;67201;-78
2022/03/15 08:00:45;;;;;;;;;;;;;;;26.63;54.61;98720.22;614666;231;65189;-72
2022/03/15 08:03:12;;;;;;;;;;;;;;;26.65;54.92;98725.33;614609;231;67227;-72
2022/03/15 08:05:40;;;;;;;;;;;;;;;26.66;54.09;98732.36;614687;231;66864;-73
2022/03/15 08:08:08;;;;;;;;;;;;;;;26.66;55.12;98724.27;614676;231;65443;-70
2022/03/15 08:10:36;;;;;;;;;;;;;;;26.67;54.20;98718.59;614550;231;64759;-66
2022/03/15 08:13:04;;;;;;;;;;;;;;;26.68;54.10;98717.53;614617;231;65639;-63
2022/03/15 08:15:31;;;;;;;;;;;;;;;26.63;55.01;98722.08;614739;231;65289;-64
2022/03/15 08:18:03;;;;;;;;;;;;;;;26.63;52.84;98711.30;614845;231;67589;-69
2022/03/15 08:20:33;;;;;;;;;;;;;;;26.66;54.26;98714.29;614700;228;64755;-71
2022/03/15 08:23:01;;;;;;;;;;;;;;;26.70;53.70;98703.77;614637;231;65271;-72
2022/03/15 08:25:29;;;;;;;;;;;;;;;26.65;48.92;98703.75;614627;228;67269;-74
2022/03/15 08:27:57;;;;;;;;;;;;;;;26.69;51.77;98700.27;614717;231;66747;-72
2022/03/15 08:30:25;;;;;;;;;;;;;;;26.70;52.17;98695.67;614766;231;63057;-73
2022/03/15 08:32:53;;;;;;;;;;;;;;;26.72;52.89;98694.33;614564;231;64842;-73
2022/03/15 08:35:21;;;;;;;;;;;;;;;26.74;51.29;98702.17;614705;231;65857;-74
2022/03/15 08:37:53;;;;;;;;;;;;;;;26.72;53.19;98694.33;614671;231;65238;-72
2022/03/15 08:40:21;;;;;;;;;;;;;;;26.74;52.24;98694.88;614600;229;67293;-74
2022/03/15 08:42:51;;;;;;;;;;;;;;;26.74;52.73;98697.58;614556;231;43008;-73
2022/03/15 08:45:18;;;;;;;;;;;;;;;26.74;53.26;98692.19;614633;231;65321;-70
2022/03/15 08:47:46;;;;;;;;;;;;;;;26.70;53.98;98688.39;614703;231;66750;-71
2022/03/15 08:50:13;;;;;;;;;;;;;;;26.74;52.96;98692.19;614374;231;64498;-68
2022/03/15 08:52:41;;;;;;;;;;;;;;;26.74;54.89;98686.79;613972;231;63458;-68
2022/03/15 08:55:09;;;;;;;;;;;;;;;26.76;54.91;98679.25;614689;231;66744;-67
2022/03/15 08:57:37;;;;;;;;;;;;;;;26.77;53.99;98688.95;614735;231;67429;-68
2022/03/15 09:00:05;;;;;;;;;;;;;;;26.77;54.34;98678.16;614581;231;65250;-67
2022/03/15 09:02:34;;;;;;;;;;;;;;;26.76;55.35;98673.85;614615;231;64739;-68
2022/03/15 09:05:01;;;;;;;;;;;;;;;26.73;56.32;98674.36;613825;231;66794;-68
2022/03/15 09:07:36;;;;;;;;;;;;;;;26.71;56.02;98676.55;614168;228;65288;-64
2022/03/15 09:10:00;;;;;;;;;;;;;;;26.70;55.10;98676.80;613623;231;67945;-66
2022/03/15 09:12:27;;;;;;;;;;;;;;;26.68;54.75;98666.30;614374;231;67374;-66
2022/03/15 09:14:55;;;;;;;;;;;;;;;26.67;54.57;98664.66;614340;231;65234;-66
2022/03/15 09:17:23;;;;;;;;;;;;;;;26.68;54.46;98652.81;614395;228;67230;-66
2022/03/15 09:19:53;;;;;;;;;;;;;;;26.67;54.87;98647.67;614629;231;66978;-67
2022/03/15 09:22:21;;;;;;;;;;;;;;;26.67;55.04;98653.07;614621;231;63248;-67
2022/03/15 09:24:49;;;;;;;;;;;;;;;26.66;53.98;98646.06;614741;231;64947;-67
2022/03/15 09:27:16;;;;;;;;;;;;;;;26.66;54.82;98646.06;614568;231;64838;-67
2022/03/15 09:29:44;;;;;;;;;;;;;;;26.61;54.79;98644.17;614657;231;65201;-67
2022/03/15 09:32:12;;;;;;;;;;;;;;;26.65;54.05;98644.43;614673;228;66575;-67
2022/03/15 09:34:40;;;;;;;;;;;;;;;26.67;53.50;98637.70;614703;228;64931;-67
2022/03/15 09:37:08;;;;;;;;;;;;;;;26.69;54.34;98632.84;614618;231;62746;-66
2022/03/15 09:39:36;;;;;;;;;;;;;;;26.68;54.93;98631.23;614677;229;65068;-67
2022/03/15 09:42:05;;;;;;;;;;;;;;;26.69;54.38;98630.16;614639;231;67095;-66
2022/03/15 09:44:34;;;;;;;;;;;;;;;26.71;53.69;98622.61;614665;231;63056;-66
2022/03/15 09:47:03;;;;;;;;;;;;;;;26.71;54.44;98614.52;614656;231;64997;-67
2022/03/15 09:49:32;;;;;;;;;;;;;;;26.71;55.03;98614.52;614612;231;68146;-66
2022/03/15 09:52:00;;;;;;;;;;;;;;;26.72;55.22;98612.63;614703;231;65314;-67
2022/03/15 09:54:29;;;;;;;;;;;;;;;26.72;54.16;98613.42;614737;231;67416;-67
2022/03/15 09:56:57;;;;;;;;;;;;;;;26.71;54.12;98606.42;614585;231;67066;-67
2022/03/15 09:59:26;;;;;;;;;;;;;;;26.72;54.69;98608.03;614683;231;62997;-67
2022/03/15 10:01:55;;;;;;;;;;;;;;;26.72;54.16;98602.64;614658;231;67219;-67
2022/03/15 10:04:24;;;;;;;;;;;;;;;26.72;54.92;98602.64;614512;231;67041;-67
2022/03/15 10:06:52;;;;;;;;;;;;;;;26.71;55.44;98595.64;614724;231;63314;-67
2022/03/15 10:09:21;;;;;;;;;;;;;;;26.71;55.40;98590.25;614704;231;68413;-67
2022/03/15 10:11:50;;;;;;;;;;;;;;;26.73;55.98;98590.76;614618;231;67185;-67
2022/03/15 10:14:19;;;;;;;;;;;;;;;26.73;55.46;98579.97;614580;231;65305;-67
2022/03/15 10:16:49;;;;;;;;;;;;;;;26.73;55.66;98582.67;614597;231;67222;-67
2022/03/15 10:19:16;;;;;;;;;;;;;;;26.73;55.25;98585.37;608104;231;66718;-67
2022/03/15 10:21:49;;;;;;;;;;;;;;;26.73;56.16;98582.67;614547;231;63014;-67
2022/03/15 10:24:22;;;;;;;;;;;;;;;26.72;55.76;98581.06;614492;231;65139;-68
2022/03/15 10:26:51;;;;;;;;;;;;;;;26.73;55.62;98577.28;614514;231;64707;-67
2022/03/15 10:29:20;;;;;;;;;;;;;;;26.70;55.30;98577.02;614081;231;65413;-66
2022/03/15 10:31:48;;;;;;;;;;;;;;;26.69;55.04;98575.41;614668;231;67386;-67
2022/03/15 10:34:17;;;;;;;;;;;;;;;26.68;55.73;98565.69;614556;231;64657;-67
2022/03/15 10:36:45;;;;;;;;;;;;;;;26.67;56.36;98566.78;614641;228;65271;-68
2022/03/15 10:39:15;;;;;;;;;;;;;;;26.64;55.68;98551.14;614580;229;66949;-70
2022/03/15 10:41:48;;;;;;;;;;;;;;;26.64;56.00;98549.25;614723;231;64828;-68
2022/03/15 10:44:17;;;;;;;;;;;;;;;26.65;55.11;98542.77;614707;229;65377;-71
2022/03/15 10:46:48;;;;;;;;;;;;;;;26.65;55.59;98541.97;614662;231;66774;-70
2022/03/15 10:49:17;;;;;;;;;;;;;;;26.64;56.60;98533.07;614657;231;66924;-69
2022/03/15 10:51:47;;;;;;;;;;;;;;;26.66;55.97;98522.03;614474;231;41804;-70
2022/03/15 10:54:15;;;;;;;;;;;;;;;26.65;56.80;98521.19;614631;231;67476;-70
2022/03/15 10:56:55;;;;;;;;;;;;;;;26.66;55.22;98516.63;614577;231;44339;-70
2022/03/15 10:59:25;;;;;;;;;;;;;;;26.66;54.87;98512.04;614818;228;65126;-70
2022/03/15 11:01:54;;;;;;;;;;;;;;;26.63;49.43;98507.20;614982;228;65836;-70
2022/03/15 11:04:24;;;;;;;;;;;;;;;26.66;49.75;98506.66;615017;230;67021;-69
2022/03/15 11:06:55;;;;;;;;;;;;;;;26.71;49.58;98506.64;615085;230;63081;-72
2022/03/15 11:09:33;;;;;;;;;;;;;;;26.76;51.45;98498.55;614612;230;48288;-66
2022/03/15 11:12:10;;;;;;;;;;;;;;;26.72;53.08;98496.66;615039;228;65129;-69
2022/03/15 11:14:54;;;;;;;;;;;;;;;26.72;54.48;98496.66;615055;230;46536;-73
2022/03/15 11:17:20;;;;;;;;;;;;;;;26.74;52.83;98492.61;614772;230;67342;-72
2022/03/15 11:19:48;;;;;;;;;;;;;;;26.76;53.59;98490.45;615040;230;67123;-61
2022/03/15 11:22:20;;;;;;;;;;;;;;;26.77;54.72;98481.27;614977;230;62927;-59
2022/03/15 11:24:48;;;;;;;;;;;;;;;26.76;53.43;98474.27;615039;230;64870;-69
2022/03/15 11:27:18;;;;;;;;;;;;;;;26.75;55.96;98475.34;613732;230;64689;-71
2022/03/15 11:29:51;;;;;;;;;;;;;;;26.75;54.76;98475.34;614538;230;65321;-70
2022/03/15 11:32:17;;;;;;;;;;;;;;;26.76;54.82;98465.35;613271;230;67356;-73
2022/03/15 11:34:44;;;;;;;;;;;;;;;26.76;54.79;98465.35;615123;230;66818;-71
2022/03/15 11:37:14;;;;;;;;;;;;;;;26.76;56.15;98460.80;614967;230;65336;-71
2022/03/15 11:39:42;;;;;;;;;;;;;;;26.76;54.62;98462.66;616307;229;67335;-71
2022/03/15 11:42:12;;;;;;;;;;;;;;;26.77;54.62;98446.21;617435;230;65328;-66
2022/03/15 11:44:44;;;;;;;;;;;;;;;26.77;55.72;98443.52;617406;230;63235;-71
2022/03/15 11:47:16;;;;;;;;;;;;;;;26.77;54.35;98448.91;617325;228;65684;-70
2022/03/15 11:49:48;;;;;;;;;;;;;;;26.79;55.65;98446.75;615110;230;64569;-70
2022/03/15 11:52:27;;;;;;;;;;;;;;;26.81;56.28;98442.97;605685;230;66603;-70
2022/03/15 11:55:05;;;;;;;;;;;;;;;26.82;54.85;98434.61;617421;230;67247;-69
2022/03/15 11:57:41;;;;;;;;;;;;;;;26.83;55.35;98435.41;617258;228;64306;-60
2022/03/15 12:00:09;;;;;;;;;;;;;;;26.82;55.43;98415.73;617427;230;62342;-72
2022/03/15 12:02:40;;;;;;;;;;;;;;;26.78;55.83;98415.45;617446;228;43234;-71
2022/03/15 12:05:25;;;;;;;;;;;;;;;26.81;55.35;98410.59;617246;228;46748;-67
2022/03/15 12:08:15;;;;;;;;;;;;;;;26.81;55.38;98403.31;617165;228;62701;-72
2022/03/15 12:10:54;;;;;;;;;;;;;;;26.81;56.79;98395.22;616510;230;67492;-70
2022/03/15 12:13:23;;;;;;;;;;;;;;;26.82;56.45;98402.25;617136;230;66888;-72
2022/03/15 12:15:51;;;;;;;;;;;;;;;26.83;55.45;98389.56;616589;228;66212;-73
2022/03/15 12:18:28;;;;;;;;;;;;;;;26.83;56.55;98384.97;617444;230;64851;-73
2022/03/15 12:20:50;;;;;;;;;;;;;;;26.85;56.28;98384.70;617209;228;64816;-73
2022/03/15 12:23:26;;;;;;;;;;;;;;;26.86;56.18;98383.61;615350;230;62984;-72
2022/03/15 12:25:54;;;;;;;;;;;;;;;26.86;56.14;98381.71;617444;230;67139;-74
2022/03/15 12:28:27;;;;;;;;;;;;;;;26.88;56.08;98381.45;617415;230;66967;-73
2022/03/15 12:30:55;;;;;;;;;;;;;;;26.88;56.28;98368.77;617491;230;64199;-73
2022/03/15 12:33:26;;;;;;;;;;;;;;;26.89;55.37;98370.37;617361;230;66970;-73
2022/03/15 12:36:00;;;;;;;;;;;;;;;26.92;54.83;98369.01;617403;228;43715;-74
2022/03/15 12:38:35;;;;;;;;;;;;;;;26.91;57.30;98362.01;617244;228;62999;-74
2022/03/15 12:41:03;;;;;;;;;;;;;;;26.93;56.25;98359.84;619601;229;67054;-74
2022/03/15 12:43:33;;;;;;;;;;;;;;;26.93;56.02;98365.25;619654;229;67150;-74
2022/03/15 12:46:05;;;;;;;;;;;;;;;26.94;55.22;98350.66;619712;229;63025;-74
2022/03/15 12:48:34;;;;;;;;;;;;;;;26.95;56.38;98352.27;619401;228;64887;-73
2022/03/15 12:51:02;;;;;;;;;;;;;;;26.96;57.15;98351.20;619743;229;66357;-68
2022/03/15 12:53:36;;;;;;;;;;;;;;;26.95;56.07;98353.06;619788;229;46721;-74
2022/03/15 12:56:04;;;;;;;;;;;;;;;26.95;57.38;98342.27;619626;229;66607;-69
2022/03/15 12:58:32;;;;;;;;;;;;;;;26.97;58.09;98339.31;619739;229;65716;-68